GMME/RBA METAR and TAF weather

Enter ICAO airport designator
Station Type Date Time Source
GMME METAR 2021/03/06 01:00 UTC NOAA

GMME 060100Z 00000KT 8000 SCT026 BKN080 13/13 Q1011 NOSIG


Station Type Date Time Source
GMME Decoded METAR 2021/03/06 01:00 UTC NOAA

Rabat-Sale, Morocco (GMME) 34-03N 006-46W 75M
Mar 05, 2021 - 08:00 PM EST / 2021.03.06 0100 UTC
Wind: Calm:0
Visibility: 4 mile(s):0
Sky conditions: mostly cloudy
Temperature: 55 F (13 C)
Dew Point: 55 F (13 C)
Relative Humidity: 100%
Pressure (altimeter): 29.85 in. Hg (1011 hPa)
ob: GMME 060100Z 00000KT 8000 SCT026 BKN080 13/13 Q1011 NOSIG
cycle: 1

Station Type Date Time Source
GMME TAF 2021/03/05 18:15 UTC NOAA

TAF GMME 051700Z 0518/0624 24012KT 7000 SCT015TCU BKN020 BKN070 PROB40
TEMPO 0518/0602 14010KT 3000 TSRA BKN015TCU SCT023CB
TEMPO 0612/0618 4000 SHRA

Example: see airport list